sensor_id;sensor_type;location;lat;lon;timestamp;P1;durP1;ratioP1;P2;durP2;ratioP2
14903;SDS011;7543;53.148;8.234;2022-10-16T00:01:45;1.40;;;1.20;;
14903;SDS011;7543;53.148;8.234;2022-10-16T00:04:14;3.37;;;1.30;;
14903;SDS011;7543;53.148;8.234;2022-10-16T00:06:42;2.27;;;1.60;;
14903;SDS011;7543;53.148;8.234;2022-10-16T00:09:10;2.73;;;1.20;;
14903;SDS011;7543;53.148;8.234;2022-10-16T00:11:39;2.90;;;1.00;;
14903;SDS011;7543;53.148;8.234;2022-10-16T00:14:08;4.00;;;1.40;;
14903;SDS011;7543;53.148;8.234;2022-10-16T00:16:38;4.93;;;1.30;;
14903;SDS011;7543;53.148;8.234;2022-10-16T00:19:08;1.27;;;1.07;;
14903;SDS011;7543;53.148;8.234;2022-10-16T00:21:37;2.10;;;1.23;;
14903;SDS011;7543;53.148;8.234;2022-10-16T00:24:06;1.90;;;1.33;;
14903;SDS011;7543;53.148;8.234;2022-10-16T00:26:36;4.43;;;1.23;;
14903;SDS011;7543;53.148;8.234;2022-10-16T00:29:05;2.40;;;0.97;;
14903;SDS011;7543;53.148;8.234;2022-10-16T00:31:33;2.77;;;1.20;;
14903;SDS011;7543;53.148;8.234;2022-10-16T00:34:02;2.10;;;1.07;;
14903;SDS011;7543;53.148;8.234;2022-10-16T00:36:31;1.60;;;1.13;;
14903;SDS011;7543;53.148;8.234;2022-10-16T00:39:00;3.03;;;1.10;;
14903;SDS011;7543;53.148;8.234;2022-10-16T00:41:28;2.23;;;1.10;;
14903;SDS011;7543;53.148;8.234;2022-10-16T00:43:59;5.17;;;1.20;;
14903;SDS011;7543;53.148;8.234;2022-10-16T00:46:29;4.60;;;1.20;;
14903;SDS011;7543;53.148;8.234;2022-10-16T00:49:02;1.87;;;1.10;;
14903;SDS011;7543;53.148;8.234;2022-10-16T00:51:35;1.97;;;0.90;;
14903;SDS011;7543;53.148;8.234;2022-10-16T00:54:08;2.97;;;1.00;;
14903;SDS011;7543;53.148;8.234;2022-10-16T00:56:38;2.80;;;1.30;;
14903;SDS011;7543;53.148;8.234;2022-10-16T00:59:07;3.23;;;1.20;;
14903;SDS011;7543;53.148;8.234;2022-10-16T01:01:39;1.83;;;1.17;;
14903;SDS011;7543;53.148;8.234;2022-10-16T01:04:07;3.20;;;0.93;;
14903;SDS011;7543;53.148;8.234;2022-10-16T01:06:39;2.03;;;1.33;;
14903;SDS011;7543;53.148;8.234;2022-10-16T01:09:11;2.80;;;0.97;;
14903;SDS011;7543;53.148;8.234;2022-10-16T01:11:44;2.43;;;0.90;;
14903;SDS011;7543;53.148;8.234;2022-10-16T01:14:22;2.07;;;1.00;;
14903;SDS011;7543;53.148;8.234;2022-10-16T01:16:55;2.20;;;1.03;;
14903;SDS011;7543;53.148;8.234;2022-10-16T01:19:36;2.47;;;1.10;;
14903;SDS011;7543;53.148;8.234;2022-10-16T01:22:14;2.87;;;1.27;;
14903;SDS011;7543;53.148;8.234;2022-10-16T01:24:43;1.47;;;1.07;;
14903;SDS011;7543;53.148;8.234;2022-10-16T01:27:15;1.00;;;0.90;;
14903;SDS011;7543;53.148;8.234;2022-10-16T01:29:48;3.93;;;1.43;;
14903;SDS011;7543;53.148;8.234;2022-10-16T01:32:22;2.40;;;1.00;;
14903;SDS011;7543;53.148;8.234;2022-10-16T01:34:53;1.33;;;1.00;;
14903;SDS011;7543;53.148;8.234;2022-10-16T01:37:29;1.47;;;1.00;;
14903;SDS011;7543;53.148;8.234;2022-10-16T01:40:00;2.50;;;1.10;;
14903;SDS011;7543;53.148;8.234;2022-10-16T01:42:33;1.93;;;1.00;;
14903;SDS011;7543;53.148;8.234;2022-10-16T01:45:03;1.13;;;0.90;;
14903;SDS011;7543;53.148;8.234;2022-10-16T01:47:34;2.10;;;0.90;;
14903;SDS011;7543;53.148;8.234;2022-10-16T01:50:03;1.10;;;1.00;;
14903;SDS011;7543;53.148;8.234;2022-10-16T01:52:34;1.43;;;0.93;;
14903;SDS011;7543;53.148;8.234;2022-10-16T01:55:04;1.87;;;1.07;;
14903;SDS011;7543;53.148;8.234;2022-10-16T01:57:35;4.80;;;1.10;;
14903;SDS011;7543;53.148;8.234;2022-10-16T02:00:07;8.83;;;1.40;;
14903;SDS011;7543;53.148;8.234;2022-10-16T02:02:40;1.77;;;1.00;;
14903;SDS011;7543;53.148;8.234;2022-10-16T02:05:10;2.20;;;0.87;;
14903;SDS011;7543;53.148;8.234;2022-10-16T02:07:41;1.80;;;0.97;;
14903;SDS011;7543;53.148;8.234;2022-10-16T02:10:11;1.87;;;1.20;;
14903;SDS011;7543;53.148;8.234;2022-10-16T02:12:42;2.53;;;1.00;;
14903;SDS011;7543;53.148;8.234;2022-10-16T02:15:12;1.20;;;0.80;;
14903;SDS011;7543;53.148;8.234;2022-10-16T02:17:40;1.47;;;1.00;;
14903;SDS011;7543;53.148;8.234;2022-10-16T02:20:09;1.30;;;1.00;;
14903;SDS011;7543;53.148;8.234;2022-10-16T02:22:39;2.90;;;1.30;;
14903;SDS011;7543;53.148;8.234;2022-10-16T02:25:09;1.70;;;1.10;;
14903;SDS011;7543;53.148;8.234;2022-10-16T02:27:41;3.57;;;0.90;;
14903;SDS011;7543;53.148;8.234;2022-10-16T02:30:19;1.43;;;0.83;;
14903;SDS011;7543;53.148;8.234;2022-10-16T02:32:49;1.77;;;0.97;;
14903;SDS011;7543;53.148;8.234;2022-10-16T02:35:19;2.50;;;1.00;;
14903;SDS011;7543;53.148;8.234;2022-10-16T02:37:49;1.40;;;0.93;;
14903;SDS011;7543;53.148;8.234;2022-10-16T02:40:18;2.30;;;1.00;;
14903;SDS011;7543;53.148;8.234;2022-10-16T02:42:49;2.70;;;1.00;;
14903;SDS011;7543;53.148;8.234;2022-10-16T02:45:18;2.23;;;1.30;;
14903;SDS011;7543;53.148;8.234;2022-10-16T02:47:47;2.30;;;1.27;;
14903;SDS011;7543;53.148;8.234;2022-10-16T02:50:15;1.47;;;0.73;;
14903;SDS011;7543;53.148;8.234;2022-10-16T02:52:44;3.47;;;1.10;;
14903;SDS011;7543;53.148;8.234;2022-10-16T02:55:12;1.00;;;0.80;;
14903;SDS011;7543;53.148;8.234;2022-10-16T02:57:40;2.13;;;0.87;;
14903;SDS011;7543;53.148;8.234;2022-10-16T03:00:12;1.03;;;0.80;;
14903;SDS011;7543;53.148;8.234;2022-10-16T03:02:41;3.50;;;0.97;;
14903;SDS011;7543;53.148;8.234;2022-10-16T03:05:09;1.60;;;0.90;;
14903;SDS011;7543;53.148;8.234;2022-10-16T03:07:38;1.37;;;0.90;;
14903;SDS011;7543;53.148;8.234;2022-10-16T03:10:06;1.47;;;0.80;;
14903;SDS011;7543;53.148;8.234;2022-10-16T03:12:35;0.70;;;0.70;;
14903;SDS011;7543;53.148;8.234;2022-10-16T03:15:04;4.10;;;1.00;;
14903;SDS011;7543;53.148;8.234;2022-10-16T03:17:34;2.67;;;0.80;;
14903;SDS011;7543;53.148;8.234;2022-10-16T03:20:03;3.13;;;1.20;;
14903;SDS011;7543;53.148;8.234;2022-10-16T03:22:31;2.83;;;0.93;;
14903;SDS011;7543;53.148;8.234;2022-10-16T03:25:00;1.90;;;1.00;;
14903;SDS011;7543;53.148;8.234;2022-10-16T03:27:28;1.30;;;1.10;;
14903;SDS011;7543;53.148;8.234;2022-10-16T03:29:56;1.60;;;0.87;;
14903;SDS011;7543;53.148;8.234;2022-10-16T03:32:24;3.27;;;1.00;;
14903;SDS011;7543;53.148;8.234;2022-10-16T03:34:54;2.90;;;1.30;;
14903;SDS011;7543;53.148;8.234;2022-10-16T03:37:23;1.50;;;1.10;;
14903;SDS011;7543;53.148;8.234;2022-10-16T03:39:51;1.40;;;1.00;;
14903;SDS011;7543;53.148;8.234;2022-10-16T03:42:20;2.50;;;1.50;;
14903;SDS011;7543;53.148;8.234;2022-10-16T03:44:48;2.37;;;1.23;;
14903;SDS011;7543;53.148;8.234;2022-10-16T03:47:16;1.87;;;1.10;;
14903;SDS011;7543;53.148;8.234;2022-10-16T03:49:48;3.67;;;1.17;;
14903;SDS011;7543;53.148;8.234;2022-10-16T03:52:17;3.10;;;1.50;;
14903;SDS011;7543;53.148;8.234;2022-10-16T03:54:46;2.67;;;1.27;;
14903;SDS011;7543;53.148;8.234;2022-10-16T03:57:14;3.30;;;1.30;;
14903;SDS011;7543;53.148;8.234;2022-10-16T03:59:42;4.53;;;1.40;;
14903;SDS011;7543;53.148;8.234;2022-10-16T04:02:10;3.27;;;1.57;;
14903;SDS011;7543;53.148;8.234;2022-10-16T04:04:38;7.47;;;1.40;;
14903;SDS011;7543;53.148;8.234;2022-10-16T04:07:07;2.77;;;1.50;;
14903;SDS011;7543;53.148;8.234;2022-10-16T04:09:37;2.20;;;1.53;;
14903;SDS011;7543;53.148;8.234;2022-10-16T04:12:05;3.70;;;1.67;;
14903;SDS011;7543;53.148;8.234;2022-10-16T04:14:33;6.40;;;1.70;;
14903;SDS011;7543;53.148;8.234;2022-10-16T04:17:01;3.33;;;1.60;;
14903;SDS011;7543;53.148;8.234;2022-10-16T04:19:29;2.33;;;1.63;;
14903;SDS011;7543;53.148;8.234;2022-10-16T04:21:58;2.27;;;1.50;;
14903;SDS011;7543;53.148;8.234;2022-10-16T04:24:26;4.20;;;1.80;;
14903;SDS011;7543;53.148;8.234;2022-10-16T04:26:55;3.10;;;2.03;;
14903;SDS011;7543;53.148;8.234;2022-10-16T04:29:24;3.37;;;1.90;;
14903;SDS011;7543;53.148;8.234;2022-10-16T04:31:52;4.23;;;2.07;;
14903;SDS011;7543;53.148;8.234;2022-10-16T04:34:20;6.80;;;1.80;;
14903;SDS011;7543;53.148;8.234;2022-10-16T04:36:48;3.27;;;2.17;;
14903;SDS011;7543;53.148;8.234;2022-10-16T04:39:17;4.63;;;1.80;;
14903;SDS011;7543;53.148;8.234;2022-10-16T04:41:45;3.93;;;2.13;;
14903;SDS011;7543;53.148;8.234;2022-10-16T04:44:15;5.40;;;2.00;;
14903;SDS011;7543;53.148;8.234;2022-10-16T04:46:43;3.40;;;2.43;;
14903;SDS011;7543;53.148;8.234;2022-10-16T04:49:12;3.83;;;2.43;;
14903;SDS011;7543;53.148;8.234;2022-10-16T04:51:40;3.90;;;2.30;;
14903;SDS011;7543;53.148;8.234;2022-10-16T04:54:08;6.00;;;2.23;;
14903;SDS011;7543;53.148;8.234;2022-10-16T04:56:36;5.57;;;2.60;;
14903;SDS011;7543;53.148;8.234;2022-10-16T04:59:09;4.87;;;2.67;;
14903;SDS011;7543;53.148;8.234;2022-10-16T05:01:39;5.13;;;2.80;;
14903;SDS011;7543;53.148;8.234;2022-10-16T05:04:07;4.80;;;2.20;;
14903;SDS011;7543;53.148;8.234;2022-10-16T05:06:35;3.63;;;2.73;;
14903;SDS011;7543;53.148;8.234;2022-10-16T05:09:05;5.57;;;2.83;;
14903;SDS011;7543;53.148;8.234;2022-10-16T05:11:33;4.97;;;2.80;;
14903;SDS011;7543;53.148;8.234;2022-10-16T05:14:02;3.20;;;2.37;;
14903;SDS011;7543;53.148;8.234;2022-10-16T05:16:30;4.97;;;2.70;;
14903;SDS011;7543;53.148;8.234;2022-10-16T05:19:00;5.73;;;2.80;;
14903;SDS011;7543;53.148;8.234;2022-10-16T05:21:28;7.23;;;2.70;;
14903;SDS011;7543;53.148;8.234;2022-10-16T05:23:56;5.57;;;2.70;;
14903;SDS011;7543;53.148;8.234;2022-10-16T05:26:24;5.53;;;2.70;;
14903;SDS011;7543;53.148;8.234;2022-10-16T05:28:52;5.00;;;2.70;;
14903;SDS011;7543;53.148;8.234;2022-10-16T05:31:21;3.97;;;2.83;;
14903;SDS011;7543;53.148;8.234;2022-10-16T05:33:49;4.40;;;2.63;;
14903;SDS011;7543;53.148;8.234;2022-10-16T05:36:18;5.30;;;3.07;;
14903;SDS011;7543;53.148;8.234;2022-10-16T05:38:50;5.77;;;2.83;;
14903;SDS011;7543;53.148;8.234;2022-10-16T05:41:18;5.33;;;2.87;;
14903;SDS011;7543;53.148;8.234;2022-10-16T05:43:48;4.57;;;2.70;;
14903;SDS011;7543;53.148;8.234;2022-10-16T05:46:16;7.97;;;2.97;;
14903;SDS011;7543;53.148;8.234;2022-10-16T05:48:44;4.97;;;2.80;;
14903;SDS011;7543;53.148;8.234;2022-10-16T05:51:14;4.70;;;2.93;;
14903;SDS011;7543;53.148;8.234;2022-10-16T05:53:43;4.17;;;3.00;;
14903;SDS011;7543;53.148;8.234;2022-10-16T05:56:11;10.07;;;2.53;;
14903;SDS011;7543;53.148;8.234;2022-10-16T05:58:40;6.23;;;3.03;;
14903;SDS011;7543;53.148;8.234;2022-10-16T06:01:11;3.77;;;2.93;;
14903;SDS011;7543;53.148;8.234;2022-10-16T06:03:41;3.97;;;2.87;;
14903;SDS011;7543;53.148;8.234;2022-10-16T06:08:39;8.03;;;3.10;;
14903;SDS011;7543;53.148;8.234;2022-10-16T06:11:10;5.40;;;3.00;;
14903;SDS011;7543;53.148;8.234;2022-10-16T06:13:39;4.93;;;2.53;;
14903;SDS011;7543;53.148;8.234;2022-10-16T06:16:09;6.13;;;2.43;;
14903;SDS011;7543;53.148;8.234;2022-10-16T06:18:38;4.50;;;2.83;;
14903;SDS011;7543;53.148;8.234;2022-10-16T06:21:06;5.13;;;2.50;;
14903;SDS011;7543;53.148;8.234;2022-10-16T06:23:35;6.17;;;2.80;;
14903;SDS011;7543;53.148;8.234;2022-10-16T06:26:04;3.73;;;2.80;;
14903;SDS011;7543;53.148;8.234;2022-10-16T06:28:34;3.93;;;2.60;;
14903;SDS011;7543;53.148;8.234;2022-10-16T06:31:03;4.07;;;2.57;;
14903;SDS011;7543;53.148;8.234;2022-10-16T06:33:32;3.97;;;2.33;;
14903;SDS011;7543;53.148;8.234;2022-10-16T06:36:00;4.53;;;2.60;;
14903;SDS011;7543;53.148;8.234;2022-10-16T06:38:30;5.13;;;2.73;;
14903;SDS011;7543;53.148;8.234;2022-10-16T06:40:58;5.43;;;2.60;;
14903;SDS011;7543;53.148;8.234;2022-10-16T06:43:28;8.40;;;2.43;;
14903;SDS011;7543;53.148;8.234;2022-10-16T06:46:00;4.13;;;2.57;;
14903;SDS011;7543;53.148;8.234;2022-10-16T06:48:28;3.50;;;2.43;;
14903;SDS011;7543;53.148;8.234;2022-10-16T06:50:57;8.23;;;2.73;;
14903;SDS011;7543;53.148;8.234;2022-10-16T06:53:27;8.10;;;2.20;;
14903;SDS011;7543;53.148;8.234;2022-10-16T06:55:56;3.70;;;2.60;;
14903;SDS011;7543;53.148;8.234;2022-10-16T06:58:24;4.93;;;2.70;;
14903;SDS011;7543;53.148;8.234;2022-10-16T07:00:55;4.00;;;2.47;;
14903;SDS011;7543;53.148;8.234;2022-10-16T07:03:24;6.53;;;2.43;;
14903;SDS011;7543;53.148;8.234;2022-10-16T07:05:53;3.63;;;2.23;;
14903;SDS011;7543;53.148;8.234;2022-10-16T07:08:21;5.33;;;2.20;;
14903;SDS011;7543;53.148;8.234;2022-10-16T07:10:57;3.83;;;2.10;;
14903;SDS011;7543;53.148;8.234;2022-10-16T07:13:26;4.87;;;2.27;;
14903;SDS011;7543;53.148;8.234;2022-10-16T07:15:54;3.40;;;2.30;;
14903;SDS011;7543;53.148;8.234;2022-10-16T07:18:22;4.77;;;2.10;;
14903;SDS011;7543;53.148;8.234;2022-10-16T07:21:02;3.77;;;2.00;;
14903;SDS011;7543;53.148;8.234;2022-10-16T07:23:31;2.60;;;1.93;;
14903;SDS011;7543;53.148;8.234;2022-10-16T07:25:59;3.50;;;2.00;;
14903;SDS011;7543;53.148;8.234;2022-10-16T07:28:27;2.77;;;1.87;;
14903;SDS011;7543;53.148;8.234;2022-10-16T07:30:59;2.60;;;1.70;;
14903;SDS011;7543;53.148;8.234;2022-10-16T07:33:28;4.73;;;2.27;;
14903;SDS011;7543;53.148;8.234;2022-10-16T07:35:58;2.30;;;1.80;;
14903;SDS011;7543;53.148;8.234;2022-10-16T07:38:26;2.73;;;1.50;;
14903;SDS011;7543;53.148;8.234;2022-10-16T07:40:57;2.80;;;1.90;;
14903;SDS011;7543;53.148;8.234;2022-10-16T07:43:26;4.13;;;1.73;;
14903;SDS011;7543;53.148;8.234;2022-10-16T07:45:55;2.77;;;1.80;;
14903;SDS011;7543;53.148;8.234;2022-10-16T07:48:23;1.70;;;1.60;;
14903;SDS011;7543;53.148;8.234;2022-10-16T07:50:57;4.33;;;1.90;;
14903;SDS011;7543;53.148;8.234;2022-10-16T07:53:27;2.53;;;1.50;;
14903;SDS011;7543;53.148;8.234;2022-10-16T07:55:56;1.90;;;1.33;;
14903;SDS011;7543;53.148;8.234;2022-10-16T07:58:25;3.30;;;1.73;;
14903;SDS011;7543;53.148;8.234;2022-10-16T08:00:53;1.87;;;1.50;;
14903;SDS011;7543;53.148;8.234;2022-10-16T08:03:22;2.30;;;1.50;;
14903;SDS011;7543;53.148;8.234;2022-10-16T08:05:50;1.67;;;1.40;;
14903;SDS011;7543;53.148;8.234;2022-10-16T08:08:20;2.10;;;1.40;;
14903;SDS011;7543;53.148;8.234;2022-10-16T08:10:48;5.40;;;1.50;;
14903;SDS011;7543;53.148;8.234;2022-10-16T08:13:17;3.23;;;1.50;;
14903;SDS011;7543;53.148;8.234;2022-10-16T08:15:45;4.97;;;1.40;;
14903;SDS011;7543;53.148;8.234;2022-10-16T08:18:14;2.40;;;1.30;;
14903;SDS011;7543;53.148;8.234;2022-10-16T08:20:43;1.87;;;1.40;;
14903;SDS011;7543;53.148;8.234;2022-10-16T08:23:11;2.33;;;1.10;;
14903;SDS011;7543;53.148;8.234;2022-10-16T08:25:41;5.07;;;1.20;;
14903;SDS011;7543;53.148;8.234;2022-10-16T08:28:10;2.87;;;1.27;;
14903;SDS011;7543;53.148;8.234;2022-10-16T08:30:38;3.93;;;1.30;;
14903;SDS011;7543;53.148;8.234;2022-10-16T08:33:06;1.40;;;1.07;;
14903;SDS011;7543;53.148;8.234;2022-10-16T08:35:35;2.03;;;1.10;;
14903;SDS011;7543;53.148;8.234;2022-10-16T08:38:03;2.87;;;1.23;;
14903;SDS011;7543;53.148;8.234;2022-10-16T08:40:32;1.50;;;1.20;;
14903;SDS011;7543;53.148;8.234;2022-10-16T08:43:09;2.97;;;1.47;;
14903;SDS011;7543;53.148;8.234;2022-10-16T08:45:48;1.43;;;1.07;;
14903;SDS011;7543;53.148;8.234;2022-10-16T08:48:26;2.80;;;1.40;;
14903;SDS011;7543;53.148;8.234;2022-10-16T08:50:58;2.30;;;1.10;;
14903;SDS011;7543;53.148;8.234;2022-10-16T08:53:27;2.67;;;1.30;;
14903;SDS011;7543;53.148;8.234;2022-10-16T08:55:59;1.70;;;0.90;;
14903;SDS011;7543;53.148;8.234;2022-10-16T08:58:29;2.20;;;1.10;;
14903;SDS011;7543;53.148;8.234;2022-10-16T09:00:58;1.77;;;0.90;;
14903;SDS011;7543;53.148;8.234;2022-10-16T09:03:32;2.87;;;1.13;;
14903;SDS011;7543;53.148;8.234;2022-10-16T09:08:55;1.90;;;0.80;;
14903;SDS011;7543;53.148;8.234;2022-10-16T09:11:36;1.87;;;1.23;;
14903;SDS011;7543;53.148;8.234;2022-10-16T09:14:17;2.63;;;1.20;;
14903;SDS011;7543;53.148;8.234;2022-10-16T09:16:55;2.53;;;0.80;;
14903;SDS011;7543;53.148;8.234;2022-10-16T09:19:27;2.10;;;1.00;;
14903;SDS011;7543;53.148;8.234;2022-10-16T09:21:59;2.80;;;0.97;;
14903;SDS011;7543;53.148;8.234;2022-10-16T09:24:29;1.03;;;0.83;;
14903;SDS011;7543;53.148;8.234;2022-10-16T09:26:57;4.20;;;1.07;;
14903;SDS011;7543;53.148;8.234;2022-10-16T09:29:25;3.90;;;1.53;;
14903;SDS011;7543;53.148;8.234;2022-10-16T09:31:54;0.80;;;0.70;;
14903;SDS011;7543;53.148;8.234;2022-10-16T09:34:27;3.50;;;1.00;;
14903;SDS011;7543;53.148;8.234;2022-10-16T09:36:58;2.53;;;1.00;;
14903;SDS011;7543;53.148;8.234;2022-10-16T09:39:28;2.80;;;0.97;;
14903;SDS011;7543;53.148;8.234;2022-10-16T09:41:56;4.40;;;1.10;;
14903;SDS011;7543;53.148;8.234;2022-10-16T09:44:26;2.63;;;0.87;;
14903;SDS011;7543;53.148;8.234;2022-10-16T09:47:02;3.53;;;0.97;;
14903;SDS011;7543;53.148;8.234;2022-10-16T09:49:30;0.80;;;0.70;;
14903;SDS011;7543;53.148;8.234;2022-10-16T09:52:06;1.97;;;0.90;;
14903;SDS011;7543;53.148;8.234;2022-10-16T09:54:49;2.33;;;0.90;;
14903;SDS011;7543;53.148;8.234;2022-10-16T09:57:19;1.43;;;1.00;;
14903;SDS011;7543;53.148;8.234;2022-10-16T09:59:48;1.70;;;1.00;;
14903;SDS011;7543;53.148;8.234;2022-10-16T10:02:17;1.53;;;0.90;;
14903;SDS011;7543;53.148;8.234;2022-10-16T10:04:48;3.50;;;0.87;;
14903;SDS011;7543;53.148;8.234;2022-10-16T10:07:18;4.00;;;0.80;;
14903;SDS011;7543;53.148;8.234;2022-10-16T10:09:50;1.70;;;0.70;;
14903;SDS011;7543;53.148;8.234;2022-10-16T10:12:19;2.03;;;0.70;;
14903;SDS011;7543;53.148;8.234;2022-10-16T10:14:49;3.00;;;0.87;;
14903;SDS011;7543;53.148;8.234;2022-10-16T10:17:18;1.43;;;0.73;;
14903;SDS011;7543;53.148;8.234;2022-10-16T10:19:49;5.93;;;0.67;;
14903;SDS011;7543;53.148;8.234;2022-10-16T10:22:30;4.07;;;0.83;;
14903;SDS011;7543;53.148;8.234;2022-10-16T10:25:14;2.00;;;0.83;;
14903;SDS011;7543;53.148;8.234;2022-10-16T10:30:48;1.37;;;0.57;;
14903;SDS011;7543;53.148;8.234;2022-10-16T10:33:24;1.43;;;0.67;;
14903;SDS011;7543;53.148;8.234;2022-10-16T10:35:59;1.93;;;0.63;;
14903;SDS011;7543;53.148;8.234;2022-10-16T10:38:34;6.33;;;0.83;;
14903;SDS011;7543;53.148;8.234;2022-10-16T10:41:12;1.40;;;0.70;;
14903;SDS011;7543;53.148;8.234;2022-10-16T10:44:01;0.93;;;0.57;;
14903;SDS011;7543;53.148;8.234;2022-10-16T10:46:34;1.50;;;0.77;;
14903;SDS011;7543;53.148;8.234;2022-10-16T10:49:07;3.17;;;0.90;;
14903;SDS011;7543;53.148;8.234;2022-10-16T10:51:41;1.30;;;0.50;;
14903;SDS011;7543;53.148;8.234;2022-10-16T10:54:17;5.53;;;1.30;;
14903;SDS011;7543;53.148;8.234;2022-10-16T10:56:51;0.90;;;0.50;;
14903;SDS011;7543;53.148;8.234;2022-10-16T10:59:40;3.03;;;0.90;;
14903;SDS011;7543;53.148;8.234;2022-10-16T11:02:18;1.80;;;0.50;;
14903;SDS011;7543;53.148;8.234;2022-10-16T11:04:57;1.50;;;0.60;;
14903;SDS011;7543;53.148;8.234;2022-10-16T11:07:48;3.50;;;0.73;;
14903;SDS011;7543;53.148;8.234;2022-10-16T11:10:18;3.57;;;0.70;;
14903;SDS011;7543;53.148;8.234;2022-10-16T11:12:51;1.70;;;0.53;;
14903;SDS011;7543;53.148;8.234;2022-10-16T11:15:23;1.17;;;0.70;;
14903;SDS011;7543;53.148;8.234;2022-10-16T11:17:54;5.07;;;1.20;;
14903;SDS011;7543;53.148;8.234;2022-10-16T11:20:27;2.00;;;0.63;;
14903;SDS011;7543;53.148;8.234;2022-10-16T11:23:00;2.77;;;0.70;;
14903;SDS011;7543;53.148;8.234;2022-10-16T11:25:33;2.60;;;0.77;;
14903;SDS011;7543;53.148;8.234;2022-10-16T11:28:03;0.77;;;0.60;;
14903;SDS011;7543;53.148;8.234;2022-10-16T11:30:39;1.90;;;0.67;;
14903;SDS011;7543;53.148;8.234;2022-10-16T11:33:14;2.47;;;0.67;;
14903;SDS011;7543;53.148;8.234;2022-10-16T11:35:52;2.57;;;0.90;;
14903;SDS011;7543;53.148;8.234;2022-10-16T11:38:24;3.27;;;0.97;;
14903;SDS011;7543;53.148;8.234;2022-10-16T11:40:57;2.03;;;0.60;;
14903;SDS011;7543;53.148;8.234;2022-10-16T11:43:30;2.60;;;1.00;;
14903;SDS011;7543;53.148;8.234;2022-10-16T11:46:02;1.40;;;0.77;;
14903;SDS011;7543;53.148;8.234;2022-10-16T11:48:33;1.00;;;0.63;;
14903;SDS011;7543;53.148;8.234;2022-10-16T11:51:05;3.60;;;0.70;;
14903;SDS011;7543;53.148;8.234;2022-10-16T11:53:42;6.53;;;1.00;;
14903;SDS011;7543;53.148;8.234;2022-10-16T11:56:15;3.90;;;1.00;;
14903;SDS011;7543;53.148;8.234;2022-10-16T11:58:49;2.20;;;0.90;;
14903;SDS011;7543;53.148;8.234;2022-10-16T12:01:22;0.77;;;0.40;;
14903;SDS011;7543;53.148;8.234;2022-10-16T12:03:58;4.03;;;0.97;;
14903;SDS011;7543;53.148;8.234;2022-10-16T12:06:31;3.17;;;0.80;;
14903;SDS011;7543;53.148;8.234;2022-10-16T12:09:02;2.90;;;0.90;;
14903;SDS011;7543;53.148;8.234;2022-10-16T12:11:32;3.13;;;0.57;;
14903;SDS011;7543;53.148;8.234;2022-10-16T12:14:17;1.97;;;0.70;;
14903;SDS011;7543;53.148;8.234;2022-10-16T12:16:51;3.40;;;0.70;;
14903;SDS011;7543;53.148;8.234;2022-10-16T12:19:21;4.60;;;1.13;;
14903;SDS011;7543;53.148;8.234;2022-10-16T12:21:51;0.90;;;0.63;;
14903;SDS011;7543;53.148;8.234;2022-10-16T12:24:27;3.80;;;0.90;;
14903;SDS011;7543;53.148;8.234;2022-10-16T12:26:59;0.43;;;0.40;;
14903;SDS011;7543;53.148;8.234;2022-10-16T12:29:36;5.50;;;0.60;;
14903;SDS011;7543;53.148;8.234;2022-10-16T12:32:06;6.77;;;1.00;;
14903;SDS011;7543;53.148;8.234;2022-10-16T12:34:52;2.97;;;0.80;;
14903;SDS011;7543;53.148;8.234;2022-10-16T12:37:21;1.43;;;0.73;;
14903;SDS011;7543;53.148;8.234;2022-10-16T12:39:52;3.27;;;0.97;;
14903;SDS011;7543;53.148;8.234;2022-10-16T12:42:31;2.37;;;0.70;;
14903;SDS011;7543;53.148;8.234;2022-10-16T12:45:12;4.17;;;0.70;;
14903;SDS011;7543;53.148;8.234;2022-10-16T12:47:50;1.80;;;0.80;;
14903;SDS011;7543;53.148;8.234;2022-10-16T12:50:24;3.37;;;0.70;;
14903;SDS011;7543;53.148;8.234;2022-10-16T12:53:00;6.27;;;1.07;;
14903;SDS011;7543;53.148;8.234;2022-10-16T12:55:32;1.80;;;0.93;;
14903;SDS011;7543;53.148;8.234;2022-10-16T12:58:18;1.13;;;0.60;;
14903;SDS011;7543;53.148;8.234;2022-10-16T13:01:02;1.83;;;0.73;;
14903;SDS011;7543;53.148;8.234;2022-10-16T13:03:40;2.80;;;0.93;;
14903;SDS011;7543;53.148;8.234;2022-10-16T13:06:18;3.23;;;0.60;;
14903;SDS011;7543;53.148;8.234;2022-10-16T13:08:54;3.83;;;1.23;;
14903;SDS011;7543;53.148;8.234;2022-10-16T13:11:43;2.87;;;0.80;;
14903;SDS011;7543;53.148;8.234;2022-10-16T13:14:23;3.33;;;0.80;;
14903;SDS011;7543;53.148;8.234;2022-10-16T13:17:06;2.37;;;0.80;;
14903;SDS011;7543;53.148;8.234;2022-10-16T13:19:41;1.53;;;0.70;;
14903;SDS011;7543;53.148;8.234;2022-10-16T13:22:14;6.50;;;1.00;;
14903;SDS011;7543;53.148;8.234;2022-10-16T13:24:49;2.00;;;0.90;;
14903;SDS011;7543;53.148;8.234;2022-10-16T13:27:25;2.53;;;0.80;;
14903;SDS011;7543;53.148;8.234;2022-10-16T13:30:00;1.97;;;0.90;;
14903;SDS011;7543;53.148;8.234;2022-10-16T13:32:31;2.40;;;0.87;;
14903;SDS011;7543;53.148;8.234;2022-10-16T13:35:00;2.93;;;0.97;;
14903;SDS011;7543;53.148;8.234;2022-10-16T13:37:28;3.23;;;0.80;;
14903;SDS011;7543;53.148;8.234;2022-10-16T13:40:02;2.63;;;0.80;;
14903;SDS011;7543;53.148;8.234;2022-10-16T13:42:40;3.03;;;0.73;;
14903;SDS011;7543;53.148;8.234;2022-10-16T13:45:17;1.80;;;0.90;;
14903;SDS011;7543;53.148;8.234;2022-10-16T13:47:47;3.27;;;0.80;;
14903;SDS011;7543;53.148;8.234;2022-10-16T13:50:16;2.80;;;0.90;;
14903;SDS011;7543;53.148;8.234;2022-10-16T13:52:46;3.00;;;1.10;;
14903;SDS011;7543;53.148;8.234;2022-10-16T13:55:15;5.77;;;1.17;;
14903;SDS011;7543;53.148;8.234;2022-10-16T13:57:44;5.13;;;1.13;;
14903;SDS011;7543;53.148;8.234;2022-10-16T14:00:20;2.53;;;0.80;;
14903;SDS011;7543;53.148;8.234;2022-10-16T14:02:51;2.13;;;0.83;;
14903;SDS011;7543;53.148;8.234;2022-10-16T14:05:23;5.93;;;1.40;;
14903;SDS011;7543;53.148;8.234;2022-10-16T14:07:51;4.40;;;1.10;;
14903;SDS011;7543;53.148;8.234;2022-10-16T14:10:21;2.33;;;1.00;;
14903;SDS011;7543;53.148;8.234;2022-10-16T14:12:54;2.90;;;1.10;;
14903;SDS011;7543;53.148;8.234;2022-10-16T14:15:23;2.73;;;0.97;;
14903;SDS011;7543;53.148;8.234;2022-10-16T14:17:53;2.90;;;1.17;;
14903;SDS011;7543;53.148;8.234;2022-10-16T14:20:24;1.47;;;0.60;;
14903;SDS011;7543;53.148;8.234;2022-10-16T14:23:00;2.33;;;0.53;;
14903;SDS011;7543;53.148;8.234;2022-10-16T14:25:31;2.00;;;0.80;;
14903;SDS011;7543;53.148;8.234;2022-10-16T14:28:00;4.03;;;0.90;;
14903;SDS011;7543;53.148;8.234;2022-10-16T14:30:30;4.43;;;0.73;;
14903;SDS011;7543;53.148;8.234;2022-10-16T14:33:01;2.27;;;0.70;;
14903;SDS011;7543;53.148;8.234;2022-10-16T14:35:31;2.03;;;0.57;;
14903;SDS011;7543;53.148;8.234;2022-10-16T14:38:01;3.40;;;0.90;;
14903;SDS011;7543;53.148;8.234;2022-10-16T14:40:30;2.77;;;0.93;;
14903;SDS011;7543;53.148;8.234;2022-10-16T14:43:00;1.00;;;0.70;;
14903;SDS011;7543;53.148;8.234;2022-10-16T14:45:30;4.63;;;0.77;;
14903;SDS011;7543;53.148;8.234;2022-10-16T14:48:01;3.73;;;1.03;;
14903;SDS011;7543;53.148;8.234;2022-10-16T14:50:31;1.63;;;0.63;;
14903;SDS011;7543;53.148;8.234;2022-10-16T14:52:59;4.87;;;0.80;;
14903;SDS011;7543;53.148;8.234;2022-10-16T14:55:27;3.30;;;0.80;;
14903;SDS011;7543;53.148;8.234;2022-10-16T14:57:56;2.27;;;0.97;;
14903;SDS011;7543;53.148;8.234;2022-10-16T15:00:24;3.03;;;0.60;;
14903;SDS011;7543;53.148;8.234;2022-10-16T15:02:52;1.17;;;0.73;;
14903;SDS011;7543;53.148;8.234;2022-10-16T15:05:22;2.90;;;0.90;;
14903;SDS011;7543;53.148;8.234;2022-10-16T15:07:52;2.17;;;0.80;;
14903;SDS011;7543;53.148;8.234;2022-10-16T15:10:22;4.57;;;1.00;;
14903;SDS011;7543;53.148;8.234;2022-10-16T15:12:51;2.63;;;0.63;;
14903;SDS011;7543;53.148;8.234;2022-10-16T15:15:33;4.50;;;1.03;;
14903;SDS011;7543;53.148;8.234;2022-10-16T15:18:02;3.00;;;1.10;;
14903;SDS011;7543;53.148;8.234;2022-10-16T15:20:33;3.60;;;0.90;;
14903;SDS011;7543;53.148;8.234;2022-10-16T15:23:03;2.17;;;0.80;;
14903;SDS011;7543;53.148;8.234;2022-10-16T15:25:35;3.60;;;0.50;;
14903;SDS011;7543;53.148;8.234;2022-10-16T15:28:06;3.57;;;0.90;;
14903;SDS011;7543;53.148;8.234;2022-10-16T15:30:34;2.77;;;0.80;;
14903;SDS011;7543;53.148;8.234;2022-10-16T15:33:03;1.63;;;0.80;;